Seville, Florida
Current Conditions -  °F | °C
As of 5:55 PM on Thursday 20 Nov 2014 (Local Time) from KDED Reporting Station
Clear Clear  
Wind Chill: 54°   Ceiling: Unl
Heat Index: 54°   Visibility: 10mi
Dew Point: 45°   Wind: 3mph
Humidity: 72%   Direction: 340°NNW
Pressure: 30.23"   Gusts: NA
Location:  29.32°N, 81.49°W
Report Text: KDED 202255Z AUTO 34003KT 10SM CLR 12/07 A3023 RMK AO1
Loading
Personal Weather Stations






























Interactive Weather Map New forecast layout! Learn more

10-Day Weather Forecast

Advertisements
Track Severe Weather on mobile